Time;durP1;ratioP1;P1;durP2;ratioP2;P2;SDS_P1;SDS_P2;PMS_P1;PMS_P2;Temp;Humidity;BMP_temperature;BMP_pressure;BME280_temperature;BME280_humidity;BME280_pressure;Samples;Min_cycle;Max_cycle;Signal;HPM_P1;HPM_P2
2022/07/18 00:00:32;;;;;;;8.15;2.03;;;25.30;39.60;;;;;;5027943;28;20061;-74
2022/07/18 00:02:58;;;;;;;5.35;1.83;;;25.30;38.90;;;;;;5029487;28;20120;-74
2022/07/18 00:05:24;;;;;;;4.57;1.85;;;25.20;39.00;;;;;;5027311;28;20199;-74
2022/07/18 00:07:50;;;;;;;4.72;2.00;;;25.20;39.30;;;;;;5028873;28;20499;-74
2022/07/18 00:10:16;;;;;;;4.30;1.77;;;25.10;39.40;;;;;;5030318;28;20025;-74
2022/07/18 00:12:42;;;;;;;4.13;2.13;;;25.10;39.70;;;;;;5019734;28;20052;-74
2022/07/18 00:15:09;;;;;;;5.45;1.98;;;25.00;39.90;;;;;;5027306;28;20029;-74
2022/07/18 00:17:36;;;;;;;4.32;1.70;;;25.00;40.00;;;;;;5028942;28;20030;-75
2022/07/18 00:20:04;;;;;;;5.72;1.95;;;24.90;40.00;;;;;;5028834;28;20029;-74
2022/07/18 00:22:30;;;;;;;5.32;1.75;;;24.90;39.90;;;;;;5017045;28;20086;-74
2022/07/18 00:24:55;;;;;;;4.57;1.80;;;24.90;39.80;;;;;;5029722;28;20119;-74
2022/07/18 00:27:21;;;;;;;7.07;1.95;;;24.90;40.10;;;;;;5029707;28;20045;-75
2022/07/18 00:29:47;;;;;;;3.45;1.90;;;24.80;40.40;;;;;;5026789;28;20827;-74
2022/07/18 00:32:12;;;;;;;4.22;1.83;;;24.80;40.90;;;;;;5028362;28;20041;-74
2022/07/18 00:34:39;;;;;;;4.50;1.85;;;24.80;41.10;;;;;;5026146;28;20025;-74
2022/07/18 00:37:05;;;;;;;6.15;1.85;;;24.80;41.40;;;;;;5026910;28;20104;-74
2022/07/18 00:39:31;;;;;;;3.95;1.90;;;24.70;41.20;;;;;;5029350;28;20034;-74
2022/07/18 00:41:57;;;;;;;6.43;2.00;;;24.70;41.70;;;;;;5026101;28;20045;-74
2022/07/18 00:44:26;;;;;;;4.40;1.90;;;24.60;42.00;;;;;;5022339;28;20539;-74
2022/07/18 00:46:53;;;;;;;5.32;2.15;;;24.60;42.00;;;;;;5022224;28;20044;-74
2022/07/18 00:49:19;;;;;;;5.65;2.10;;;24.50;42.20;;;;;;5027992;28;20030;-74
2022/07/18 00:51:46;;;;;;;5.28;1.90;;;24.40;42.40;;;;;;5029159;28;20044;-74
2022/07/18 00:54:12;;;;;;;5.50;1.80;;;24.40;42.60;;;;;;5028632;28;20041;-74
2022/07/18 00:56:38;;;;;;;4.82;2.15;;;24.30;42.80;;;;;;5028265;28;20025;-74
2022/07/18 00:59:05;;;;;;;6.15;2.10;;;24.20;42.60;;;;;;5025714;28;20183;-74
2022/07/18 01:01:43;;;;;;;5.43;2.40;;;24.20;43.50;;;;;;5014024;28;20029;-74
2022/07/18 01:04:11;;;;;;;5.57;2.38;;;24.10;43.70;;;;;;5022592;28;20033;-74
2022/07/18 01:06:37;;;;;;;9.45;2.33;;;24.10;43.80;;;;;;5029886;28;20610;-74
2022/07/18 01:09:03;;;;;;;5.30;2.20;;;24.10;43.90;;;;;;5023484;28;20477;-74
2022/07/18 01:11:29;;;;;;;4.30;2.10;;;24.00;44.00;;;;;;5028219;28;20052;-74
2022/07/18 01:13:55;;;;;;;5.20;2.20;;;24.00;43.90;;;;;;5027238;28;20469;-74
2022/07/18 01:16:21;;;;;;;5.88;2.30;;;24.00;44.20;;;;;;5028081;28;20299;-73
2022/07/18 01:18:48;;;;;;;5.07;2.20;;;24.00;44.20;;;;;;5027979;28;20481;-74
2022/07/18 01:21:14;;;;;;;7.72;2.20;;;24.00;44.10;;;;;;5024441;28;20072;-74
2022/07/18 01:23:41;;;;;;;4.80;2.08;;;24.00;43.80;;;;;;5022603;28;20501;-74
2022/07/18 01:26:07;;;;;;;7.22;2.20;;;24.00;43.50;;;;;;5029711;28;20040;-74
2022/07/18 01:28:33;;;;;;;6.55;2.25;;;24.00;43.30;;;;;;5026789;28;20021;-75
2022/07/18 01:30:59;;;;;;;6.50;2.22;;;24.00;43.40;;;;;;5023083;28;20065;-74
2022/07/18 01:33:24;;;;;;;4.93;2.20;;;23.90;43.50;;;;;;5024532;28;20045;-74
2022/07/18 01:35:51;;;;;;;6.20;2.17;;;23.90;43.50;;;;;;5019439;28;20037;-74
2022/07/18 01:38:18;;;;;;;5.43;1.88;;;23.90;43.40;;;;;;5016436;28;20036;-74
2022/07/18 01:40:44;;;;;;;6.15;1.98;;;23.90;42.90;;;;;;5027445;28;20109;-74
2022/07/18 01:43:09;;;;;;;5.55;2.03;;;23.90;41.60;;;;;;5026190;28;20154;-74
2022/07/18 01:45:35;;;;;;;4.53;1.83;;;23.90;40.80;;;;;;5028636;28;20029;-74
2022/07/18 01:48:01;;;;;;;3.88;1.88;;;23.90;40.90;;;;;;5024538;28;20061;-74
2022/07/18 01:50:27;;;;;;;4.43;1.92;;;23.90;40.70;;;;;;5024925;28;20129;-74
2022/07/18 01:52:53;;;;;;;4.32;1.95;;;23.90;40.80;;;;;;5024633;28;20061;-74
2022/07/18 01:55:19;;;;;;;3.78;1.80;;;23.90;40.50;;;;;;5029173;28;20629;-74
2022/07/18 01:57:44;;;;;;;5.10;2.03;;;23.90;39.20;;;;;;5028227;28;20037;-74
2022/07/18 02:00:11;;;;;;;4.32;1.90;;;23.90;40.10;;;;;;5025756;28;20519;-74
2022/07/18 02:02:37;;;;;;;5.38;1.90;;;23.90;39.60;;;;;;5026164;28;20171;-74
2022/07/18 02:05:05;;;;;;;5.50;1.95;;;23.90;39.50;;;;;;5027478;28;20470;-73
2022/07/18 02:07:34;;;;;;;3.85;1.92;;;23.90;39.60;;;;;;5019128;28;20033;-74
2022/07/18 02:10:00;;;;;;;5.60;1.90;;;24.00;39.70;;;;;;5024543;28;20398;-74
2022/07/18 02:12:27;;;;;;;5.05;1.83;;;23.90;39.40;;;;;;5023919;28;20054;-74
2022/07/18 02:14:53;;;;;;;4.07;1.83;;;24.00;39.60;;;;;;5024785;28;20020;-74
2022/07/18 02:17:19;;;;;;;4.20;1.90;;;23.90;39.80;;;;;;5025293;28;20442;-74
2022/07/18 02:19:45;;;;;;;8.88;2.25;;;23.90;39.60;;;;;;5026374;28;20028;-74
2022/07/18 02:22:11;;;;;;;4.80;2.10;;;23.90;39.60;;;;;;5027409;28;20029;-74
2022/07/18 02:24:37;;;;;;;4.18;1.80;;;23.90;39.80;;;;;;5027127;28;20096;-74
2022/07/18 02:27:03;;;;;;;5.13;2.20;;;23.90;40.10;;;;;;5027182;28;20041;-74
2022/07/18 02:29:29;;;;;;;3.38;1.90;;;23.90;40.60;;;;;;5025979;28;20366;-74
2022/07/18 02:31:54;;;;;;;3.97;1.98;;;23.80;41.20;;;;;;5026698;28;20103;-74
2022/07/18 02:34:20;;;;;;;4.10;2.17;;;23.80;41.70;;;;;;5024925;28;20906;-73
2022/07/18 02:36:46;;;;;;;4.28;2.25;;;23.70;42.40;;;;;;5028114;28;20033;-74
2022/07/18 02:39:12;;;;;;;5.93;2.13;;;23.70;43.10;;;;;;5025465;28;20028;-74
2022/07/18 02:41:38;;;;;;;6.78;2.30;;;23.60;43.60;;;;;;5022329;28;20142;-74
2022/07/18 02:44:04;;;;;;;4.63;2.10;;;23.60;44.20;;;;;;5017876;28;20037;-74
2022/07/18 02:46:30;;;;;;;3.55;2.10;;;23.50;44.50;;;;;;5025067;28;20052;-74
2022/07/18 02:48:55;;;;;;;6.55;2.30;;;23.50;44.90;;;;;;5026970;28;20068;-74
2022/07/18 02:51:21;;;;;;;7.32;2.10;;;23.40;45.00;;;;;;5026326;28;20029;-74
2022/07/18 02:53:47;;;;;;;5.22;1.95;;;23.40;45.10;;;;;;5024623;28;20449;-74
2022/07/18 02:56:12;;;;;;;3.85;2.00;;;23.30;45.20;;;;;;5028470;28;20037;-74
2022/07/18 02:58:38;;;;;;;3.67;2.05;;;23.20;45.20;;;;;;5025243;28;20477;-74
2022/07/18 03:01:04;;;;;;;6.00;2.15;;;23.10;45.30;;;;;;5026921;28;20492;-74
2022/07/18 03:03:29;;;;;;;9.75;2.35;;;23.10;45.40;;;;;;5024922;28;20112;-74
2022/07/18 03:05:55;;;;;;;4.70;2.20;;;23.00;45.50;;;;;;5024136;28;20441;-74
2022/07/18 03:08:21;;;;;;;5.53;2.20;;;22.90;45.70;;;;;;5022464;28;20112;-73
2022/07/18 03:10:46;;;;;;;5.10;2.58;;;22.90;46.10;;;;;;5025548;28;20052;-74
2022/07/18 03:13:13;;;;;;;5.75;2.17;;;22.90;46.10;;;;;;5025477;28;20033;-73
2022/07/18 03:15:40;;;;;;;5.80;2.40;;;22.90;46.10;;;;;;5027226;28;20029;-73
2022/07/18 03:18:05;;;;;;;7.60;2.45;;;22.90;46.20;;;;;;5025708;28;20033;-73
2022/07/18 03:20:32;;;;;;;5.22;2.42;;;22.90;46.30;;;;;;5025316;28;20039;-73
2022/07/18 03:22:57;;;;;;;7.75;2.47;;;22.90;46.20;;;;;;5025350;28;20030;-73
2022/07/18 03:25:23;;;;;;;5.88;2.42;;;22.90;46.20;;;;;;5027426;28;20037;-73
2022/07/18 03:27:49;;;;;;;7.90;2.30;;;22.80;46.10;;;;;;5027047;28;20105;-73
2022/07/18 03:30:15;;;;;;;5.00;2.30;;;22.80;46.10;;;;;;5028942;28;20112;-73
2022/07/18 03:32:41;;;;;;;6.53;2.60;;;22.80;46.10;;;;;;5029447;28;20134;-72
2022/07/18 03:35:07;;;;;;;6.30;2.30;;;22.80;46.20;;;;;;5023419;28;20087;-72
2022/07/18 03:37:33;;;;;;;6.22;2.50;;;22.70;46.20;;;;;;5020708;28;20048;-73
2022/07/18 03:39:58;;;;;;;5.57;2.58;;;22.70;46.40;;;;;;5030049;28;20302;-73
2022/07/18 03:42:24;;;;;;;5.28;2.28;;;22.70;46.60;;;;;;5021883;28;20030;-73
2022/07/18 03:44:50;;;;;;;4.80;2.20;;;22.70;46.80;;;;;;5027467;28;20129;-73
2022/07/18 03:47:15;;;;;;;4.82;2.28;;;22.70;47.10;;;;;;5028547;28;20523;-73
2022/07/18 03:49:41;;;;;;;7.72;2.30;;;22.70;47.30;;;;;;5030168;28;20025;-72
2022/07/18 03:52:07;;;;;;;8.18;2.45;;;22.70;47.40;;;;;;5030215;28;20382;-73
2022/07/18 03:54:32;;;;;;;5.45;2.38;;;22.70;47.50;;;;;;5021858;28;20030;-73
2022/07/18 03:56:58;;;;;;;5.43;2.45;;;22.60;47.70;;;;;;5026087;28;20026;-73
2022/07/18 03:59:24;;;;;;;5.88;2.40;;;22.50;47.20;;;;;;5029323;28;20041;-73
2022/07/18 04:01:49;;;;;;;10.10;2.88;;;22.50;48.10;;;;;;5027509;28;20047;-73
2022/07/18 04:04:15;;;;;;;31.27;3.85;;;22.40;48.30;;;;;;5027736;28;20132;-76
2022/07/18 04:06:41;;;;;;;38.40;3.80;;;22.40;48.60;;;;;;5027029;28;20101;-73
2022/07/18 04:09:07;;;;;;;7.15;2.97;;;22.30;48.80;;;;;;5027540;28;20059;-73
2022/07/18 04:11:32;;;;;;;6.65;3.08;;;22.30;49.00;;;;;;5021756;28;20041;-73
2022/07/18 04:13:58;;;;;;;9.07;2.60;;;22.20;49.10;;;;;;5027041;28;20500;-73
2022/07/18 04:16:24;;;;;;;6.70;2.90;;;22.20;49.10;;;;;;5025440;28;20045;-73
2022/07/18 04:18:50;;;;;;;6.63;2.83;;;22.10;48.90;;;;;;5023134;28;20030;-73
2022/07/18 04:21:16;;;;;;;5.93;2.60;;;22.20;49.00;;;;;;5028680;28;20037;-73
2022/07/18 04:23:42;;;;;;;9.30;2.70;;;22.20;48.90;;;;;;5026117;28;20048;-73
2022/07/18 04:26:08;;;;;;;5.53;2.80;;;22.20;48.10;;;;;;5022613;28;20072;-74
2022/07/18 04:28:35;;;;;;;7.88;2.67;;;22.20;49.00;;;;;;5023347;28;20033;-75
2022/07/18 04:31:01;;;;;;;7.28;2.75;;;22.20;49.00;;;;;;5027877;28;20168;-73
2022/07/18 04:33:27;;;;;;;6.32;2.60;;;22.20;48.80;;;;;;5030417;28;20037;-74
2022/07/18 04:35:53;;;;;;;7.30;2.58;;;22.20;48.70;;;;;;5023310;28;20022;-72
2022/07/18 04:38:19;;;;;;;8.48;2.88;;;22.10;48.70;;;;;;5028316;28;20449;-72
2022/07/18 04:40:44;;;;;;;6.47;2.70;;;22.10;48.70;;;;;;5026262;28;20037;-72
2022/07/18 04:43:10;;;;;;;6.85;2.95;;;22.10;47.90;;;;;;5027624;28;20798;-73
2022/07/18 04:45:37;;;;;;;5.35;2.60;;;22.20;48.80;;;;;;5024585;28;20029;-75
2022/07/18 04:48:06;;;;;;;8.95;2.80;;;22.20;48.80;;;;;;5027745;28;20038;-75
2022/07/18 04:50:32;;;;;;;8.75;2.80;;;22.20;49.00;;;;;;5026787;28;20443;-75
2022/07/18 04:52:59;;;;;;;9.20;3.00;;;22.20;49.00;;;;;;5027245;28;20041;-74
2022/07/18 04:55:25;;;;;;;8.23;3.00;;;22.20;49.20;;;;;;5025151;28;20041;-75
2022/07/18 04:57:52;;;;;;;8.02;3.10;;;22.30;49.40;;;;;;5023098;28;20346;-74
2022/07/18 05:00:20;;;;;;;6.95;2.88;;;22.30;49.70;;;;;;5023779;28;20029;-76
2022/07/18 05:02:48;;;;;;;10.00;2.97;;;22.30;49.90;;;;;;5022349;28;20029;-74
2022/07/18 05:05:15;;;;;;;8.88;3.00;;;22.30;50.10;;;;;;5019239;28;20037;-74
2022/07/18 05:07:43;;;;;;;13.57;3.28;;;22.40;50.20;;;;;;5029178;28;20507;-74
2022/07/18 05:10:10;;;;;;;10.40;2.75;;;22.40;50.10;;;;;;5029111;28;20071;-74
2022/07/18 05:12:42;;;;;;;10.95;2.80;;;22.50;48.40;;;;;;5028840;28;20053;-74
2022/07/18 05:15:12;;;;;;;6.32;2.83;;;22.50;49.10;;;;;;5023650;28;20026;-74
2022/07/18 05:17:39;;;;;;;9.90;2.80;;;22.60;48.70;;;;;;5019748;28;20080;-74
2022/07/18 05:20:07;;;;;;;9.45;2.55;;;22.60;48.50;;;;;;5025556;28;20496;-75
2022/07/18 05:22:33;;;;;;;8.98;2.80;;;22.70;48.50;;;;;;5026680;28;20489;-76
2022/07/18 05:25:00;;;;;;;7.45;3.30;;;22.80;48.00;;;;;;5030188;28;20058;-76
2022/07/18 05:27:25;;;;;;;9.52;2.95;;;22.80;47.50;;;;;;5028200;28;20029;-75
2022/07/18 05:29:52;;;;;;;7.30;3.00;;;22.90;47.20;;;;;;5025663;28;20032;-75
2022/07/18 05:32:18;;;;;;;6.32;2.78;;;23.00;45.90;;;;;;5026998;28;20110;-75
2022/07/18 05:34:44;;;;;;;6.40;2.70;;;23.10;45.20;;;;;;5027537;28;20014;-75
2022/07/18 05:37:09;;;;;;;5.32;2.60;;;23.20;44.30;;;;;;5027383;28;20033;-75
2022/07/18 05:39:35;;;;;;;8.48;3.15;;;23.40;44.50;;;;;;5023000;28;20029;-75
2022/07/18 05:42:02;;;;;;;10.38;2.78;;;23.40;44.10;;;;;;5027361;28;20026;-75
2022/07/18 05:44:28;;;;;;;9.73;2.72;;;23.50;43.00;;;;;;5027625;28;20018;-74
2022/07/18 05:46:56;;;;;;;12.85;2.88;;;23.60;42.70;;;;;;5026471;28;20039;-75
2022/07/18 05:49:22;;;;;;;7.35;2.90;;;23.80;42.10;;;;;;5025169;28;20021;-75
2022/07/18 05:51:47;;;;;;;15.30;2.97;;;23.90;41.60;;;;;;5026555;28;20418;-74
2022/07/18 05:54:18;;;;;;;10.13;2.65;;;24.10;40.10;;;;;;5023983;28;20080;-74
2022/07/18 05:56:45;;;;;;;;;;;24.10;41.00;;;;;;5028394;28;20022;-74
2022/07/18 05:59:10;;;;;;;9.95;2.50;;;24.30;40.20;;;;;;5026008;28;19917;-77
2022/07/18 06:01:37;;;;;;;9.90;2.60;;;24.40;39.10;;;;;;5024331;28;20033;-74
2022/07/18 06:04:03;;;;;;;10.68;2.70;;;24.50;38.60;;;;;;5021298;28;20026;-74
2022/07/18 06:06:30;;;;;;;12.43;3.00;;;24.60;38.30;;;;;;5030367;28;20069;-73
2022/07/18 06:08:55;;;;;;;9.55;2.95;;;24.70;38.30;;;;;;5021099;28;20018;-73
2022/07/18 06:11:21;;;;;;;11.82;3.33;;;24.90;37.80;;;;;;5025159;28;20054;-70
2022/07/18 06:13:47;;;;;;;11.05;3.20;;;25.00;38.00;;;;;;5024973;28;20094;-71
2022/07/18 06:16:13;;;;;;;12.98;3.40;;;25.10;37.50;;;;;;5021314;28;20066;-70
2022/07/18 06:18:38;;;;;;;11.23;3.33;;;25.20;36.90;;;;;;5026759;28;20519;-70
2022/07/18 06:21:04;;;;;;;11.15;3.28;;;25.40;36.70;;;;;;5025268;28;20503;-71
2022/07/18 06:23:30;;;;;;;15.43;3.13;;;25.50;36.20;;;;;;5022307;28;20065;-72
2022/07/18 06:25:57;;;;;;;11.25;3.33;;;25.70;36.10;;;;;;5024931;28;20455;-69
2022/07/18 06:28:28;;;;;;;12.13;3.03;;;25.90;35.90;;;;;;5024442;28;20061;-69
2022/07/18 06:30:54;;;;;;;14.05;3.00;;;26.00;35.60;;;;;;5027644;28;20163;-68
2022/07/18 06:33:21;;;;;;;11.73;2.75;;;26.20;35.10;;;;;;5025834;28;20415;-69
2022/07/18 06:35:50;;;;;;;14.23;2.95;;;26.40;34.90;;;;;;5024478;28;20615;-69
2022/07/18 06:38:17;;;;;;;10.60;2.50;;;26.60;34.30;;;;;;5021388;28;20033;-69
2022/07/18 06:40:44;;;;;;;11.38;2.70;;;26.90;33.90;;;;;;5023137;28;20079;-69
2022/07/18 06:43:10;;;;;;;7.00;1.90;;;27.00;33.40;;;;;;5024273;28;20030;-68
2022/07/18 06:45:36;;;;;;;5.85;1.88;;;27.30;32.10;;;;;;5020615;28;20025;-68
2022/07/18 06:48:02;;;;;;;9.32;2.00;;;27.50;30.70;;;;;;5020921;28;20033;-68
2022/07/18 06:50:28;;;;;;;5.30;2.00;;;27.90;30.20;;;;;;5018127;28;20026;-67
2022/07/18 06:52:54;;;;;;;4.88;1.92;;;28.20;29.60;;;;;;5023987;28;20049;-67
2022/07/18 06:55:20;;;;;;;4.70;2.08;;;28.80;29.10;;;;;;5026217;28;20539;-67
2022/07/18 06:57:46;;;;;;;6.97;1.80;;;29.40;28.40;;;;;;5023008;28;20801;-67
2022/07/18 07:00:14;;;;;;;5.55;1.90;;;30.00;27.60;;;;;;5024033;28;20439;-67
2022/07/18 07:02:43;;;;;;;3.95;1.90;;;30.70;26.90;;;;;;5023320;28;20029;-67
2022/07/18 07:05:09;;;;;;;5.10;1.80;;;31.20;26.10;;;;;;5022428;28;20029;-67
2022/07/18 07:07:35;;;;;;;3.95;1.77;;;31.70;25.60;;;;;;5022751;28;20087;-68
2022/07/18 07:10:00;;;;;;;5.75;1.73;;;32.20;25.30;;;;;;5024600;28;20033;-68
2022/07/18 07:12:26;;;;;;;6.25;1.75;;;32.50;24.60;;;;;;5020947;28;20050;-68
2022/07/18 07:14:53;;;;;;;6.10;1.98;;;32.80;24.40;;;;;;5021329;28;20408;-68
2022/07/18 07:17:19;;;;;;;4.65;2.10;;;33.10;24.10;;;;;;5026097;28;20033;-67
2022/07/18 07:19:45;;;;;;;5.65;2.00;;;33.30;23.60;;;;;;5025879;28;20017;-67
2022/07/18 07:22:11;;;;;;;5.10;1.90;;;33.60;23.50;;;;;;5023176;28;20725;-67
2022/07/18 07:24:42;;;;;;;7.28;1.88;;;33.90;23.20;;;;;;5026128;28;20041;-68
2022/07/18 07:27:08;;;;;;;6.82;1.75;;;34.10;22.40;;;;;;5025325;28;20022;-67
2022/07/18 07:29:33;;;;;;;3.33;1.60;;;34.40;22.60;;;;;;5020011;28;20075;-67
2022/07/18 07:31:59;;;;;;;4.43;1.70;;;34.60;22.00;;;;;;5024683;28;20595;-67
2022/07/18 07:34:25;;;;;;;4.15;1.80;;;34.90;21.80;;;;;;5026360;28;20077;-68
2022/07/18 07:36:51;;;;;;;7.70;1.70;;;35.10;21.70;;;;;;5020698;28;20602;-67
2022/07/18 07:39:17;;;;;;;8.43;2.63;;;35.30;21.40;;;;;;5021058;28;20076;-68
2022/07/18 07:41:42;;;;;;;12.05;1.80;;;35.70;19.80;;;;;;5022199;28;20435;-70
2022/07/18 07:44:08;;;;;;;5.72;1.75;;;35.70;20.50;;;;;;5024935;28;20554;-71
2022/07/18 07:46:34;;;;;;;8.02;1.80;;;35.80;20.60;;;;;;5020665;28;20029;-68
2022/07/18 07:48:59;;;;;;;4.68;1.70;;;35.50;20.70;;;;;;5024417;28;20030;-67
2022/07/18 07:51:27;;;;;;;7.75;1.80;;;35.10;21.30;;;;;;5022250;28;20049;-68
2022/07/18 07:53:52;;;;;;;5.00;1.80;;;34.70;21.70;;;;;;5020306;28;20063;-67
2022/07/18 07:56:19;;;;;;;7.78;2.10;;;34.30;22.50;;;;;;5028319;28;20025;-67
2022/07/18 07:58:45;;;;;;;6.53;2.15;;;34.00;23.00;;;;;;5022884;28;20681;-67
2022/07/18 08:01:11;;;;;;;8.32;1.98;;;33.80;23.30;;;;;;5024704;28;20045;-68
2022/07/18 08:03:38;;;;;;;6.30;1.80;;;33.60;23.30;;;;;;5022151;28;20400;-67
2022/07/18 08:06:04;;;;;;;4.20;1.92;;;33.30;23.60;;;;;;5022465;28;20029;-67
2022/07/18 08:08:29;;;;;;;6.90;2.08;;;33.10;23.80;;;;;;5020375;28;20024;-68
2022/07/18 08:10:55;;;;;;;5.88;1.90;;;33.10;24.00;;;;;;5020781;28;20033;-67
2022/07/18 08:13:20;;;;;;;4.70;1.90;;;33.00;24.10;;;;;;5019300;28;20108;-66
2022/07/18 08:15:46;;;;;;;5.28;1.80;;;33.00;24.00;;;;;;5022891;28;20049;-66
2022/07/18 08:18:12;;;;;;;6.78;1.98;;;33.10;24.10;;;;;;5024258;28;20077;-66
2022/07/18 08:20:38;;;;;;;6.00;2.17;;;33.10;24.00;;;;;;5026794;28;20025;-66
2022/07/18 08:23:06;;;;;;;10.13;2.08;;;33.10;23.70;;;;;;5027998;28;20596;-66
2022/07/18 08:25:34;;;;;;;7.95;1.90;;;33.10;23.90;;;;;;5027204;28;20029;-66
2022/07/18 08:28:01;;;;;;;9.02;2.20;;;33.20;24.50;;;;;;5029142;28;20096;-66
2022/07/18 08:30:28;;;;;;;4.72;1.67;;;33.40;24.30;;;;;;5027014;28;20021;-66
2022/07/18 08:32:54;;;;;;;6.68;2.00;;;33.60;23.70;;;;;;5025042;28;20039;-66
2022/07/18 08:35:20;;;;;;;5.97;1.73;;;33.70;23.50;;;;;;5026665;28;20460;-66
2022/07/18 08:37:46;;;;;;;5.40;2.20;;;33.70;23.50;;;;;;5028667;28;20512;-66
2022/07/18 08:40:13;;;;;;;7.00;1.90;;;33.70;23.20;;;;;;5025163;28;20104;-66
2022/07/18 08:42:40;;;;;;;5.63;2.10;;;33.80;23.40;;;;;;5029230;28;20488;-66
2022/07/18 08:45:06;;;;;;;12.60;2.08;;;33.90;23.60;;;;;;5024396;28;20028;-66
2022/07/18 08:47:32;;;;;;;5.22;1.85;;;34.00;23.30;;;;;;5022497;28;20045;-66
2022/07/18 08:49:59;;;;;;;5.03;2.10;;;34.10;22.50;;;;;;5021077;28;20029;-66
2022/07/18 08:52:28;;;;;;;11.85;2.03;;;34.10;23.10;;;;;;5026746;28;20052;-67
2022/07/18 08:54:54;;;;;;;4.85;2.05;;;34.30;23.40;;;;;;5027557;28;20029;-67
2022/07/18 08:57:21;;;;;;;7.03;2.00;;;34.60;23.10;;;;;;5025119;28;20025;-67
2022/07/18 08:59:47;;;;;;;5.28;1.90;;;34.70;22.70;;;;;;5028814;28;20048;-67
2022/07/18 09:02:13;;;;;;;6.70;2.00;;;35.00;22.10;;;;;;5024594;28;20068;-67
2022/07/18 09:04:41;;;;;;;5.93;1.95;;;35.20;21.80;;;;;;5026362;28;20125;-68
2022/07/18 09:07:09;;;;;;;8.57;2.00;;;35.30;21.10;;;;;;5021959;28;20025;-67
2022/07/18 09:09:36;;;;;;;3.70;1.73;;;35.40;21.10;;;;;;5027387;28;20484;-67
2022/07/18 09:12:09;;;;;;;7.05;1.90;;;35.50;20.80;;;;;;5024935;28;20053;-67
2022/07/18 09:14:42;;;;;;;8.18;1.83;;;35.60;20.90;;;;;;5021234;28;20034;-67
2022/07/18 09:17:16;;;;;;;5.53;1.70;;;35.80;20.70;;;;;;5024502;28;20049;-67
2022/07/18 09:19:55;;;;;;;9.43;1.75;;;36.00;20.60;;;;;;5023761;28;20037;-66
2022/07/18 09:22:23;;;;;;;4.30;1.95;;;36.30;20.30;;;;;;5025751;28;20076;-66
2022/07/18 09:24:54;;;;;;;6.22;1.90;;;36.70;19.90;;;;;;5026444;28;20025;-67
2022/07/18 09:27:52;;;;;;;4.93;1.70;;;37.20;18.50;;;;;;5024027;28;20037;-68
2022/07/18 09:30:29;;;;;;;4.85;1.70;;;37.80;17.60;;;;;;5021571;28;20115;-67
2022/07/18 09:33:09;;;;;;;4.18;1.50;;;38.20;17.50;;;;;;5018581;28;20412;-68
2022/07/18 09:35:45;;;;;;;7.47;1.75;;;38.20;18.00;;;;;;5021165;28;20044;-66
2022/07/18 09:38:14;;;;;;;6.25;1.60;;;38.80;17.30;;;;;;5022312;28;20103;-67
2022/07/18 09:40:44;;;;;;;5.65;1.80;;;39.80;16.00;;;;;;5025088;28;20033;-67
2022/07/18 09:43:14;;;;;;;5.50;1.38;;;39.70;16.60;;;;;;5019333;28;20037;-67
2022/07/18 09:45:42;;;;;;;6.25;2.30;;;40.20;16.00;;;;;;5058401;28;20036;-67
2022/07/18 09:48:10;;;;;;;3.53;1.60;;;40.50;15.70;;;;;;5025515;28;20108;-67
2022/07/18 09:51:00;;;;;;;4.95;1.85;;;40.90;15.20;;;;;;5021485;28;20068;-67
2022/07/18 09:53:27;;;;;;;4.50;1.40;;;41.30;14.90;;;;;;5023234;28;20111;-69
2022/07/18 09:55:55;;;;;;;4.88;1.30;;;41.80;14.60;;;;;;5025283;28;20039;-69
2022/07/18 09:58:23;;;;;;;4.50;1.50;;;42.10;14.10;;;;;;5022070;28;20061;-68
2022/07/18 10:00:49;;;;;;;4.47;1.40;;;42.30;13.70;;;;;;5027867;28;20387;-67
2022/07/18 10:03:16;;;;;;;3.45;1.33;;;42.50;13.70;;;;;;5025739;28;20034;-68
2022/07/18 10:05:44;;;;;;;6.93;1.60;;;42.70;13.70;;;;;;5017183;28;20021;-67
2022/07/18 10:08:13;;;;;;;6.50;1.45;;;42.90;13.20;;;;;;5016758;28;20033;-67
2022/07/18 10:10:40;;;;;;;3.40;1.27;;;43.30;13.30;;;;;;5015115;28;20039;-68
2022/07/18 10:13:08;;;;;;;4.55;1.35;;;43.70;13.10;;;;;;5021151;28;20498;-68
2022/07/18 10:15:37;;;;;;;5.57;1.30;;;44.00;12.70;;;;;;5021395;28;20034;-67
2022/07/18 10:18:05;;;;;;;6.00;1.17;;;44.30;12.50;;;;;;5023188;28;20037;-67
2022/07/18 10:20:33;;;;;;;6.18;1.25;;;44.50;12.20;;;;;;5024197;28;20037;-68
2022/07/18 10:23:06;;;;;;;3.58;1.20;;;44.70;12.00;;;;;;5024801;28;20088;-67
2022/07/18 10:25:31;;;;;;;3.97;1.10;;;44.90;11.90;;;;;;5027660;28;20110;-67
2022/07/18 10:28:05;;;;;;;5.57;1.20;;;45.20;11.80;;;;;;5023823;28;20061;-70
2022/07/18 10:30:37;;;;;;;3.72;1.20;;;45.60;11.50;;;;;;5022101;28;20025;-67
2022/07/18 10:33:04;;;;;;;4.13;1.20;;;45.90;10.90;;;;;;5023295;28;20091;-69
2022/07/18 10:35:58;;;;;;;4.28;1.23;;;45.90;11.00;;;;;;5018898;28;20056;-69
2022/07/18 10:38:24;;;;;;;3.97;1.10;;;46.00;11.10;;;;;;5019228;28;20049;-70
2022/07/18 10:41:10;;;;;;;5.03;1.10;;;46.20;10.60;;;;;;5019375;28;20446;-69
2022/07/18 10:43:41;;;;;;;5.10;1.20;;;46.40;10.70;;;;;;5014696;28;20025;-69
2022/07/18 10:46:09;;;;;;;3.35;1.02;;;46.70;10.40;;;;;;5018955;28;20044;-70
2022/07/18 10:48:35;;;;;;;6.43;1.08;;;47.10;10.50;;;;;;5024038;28;20029;-69
2022/07/18 10:51:15;;;;;;;4.22;1.10;;;47.20;10.20;;;;;;5025086;28;20389;-70
2022/07/18 10:53:53;;;;;;;3.83;1.00;;;47.50;9.90;;;;;;5022339;28;20103;-71
2022/07/18 10:56:19;;;;;;;9.27;1.48;;;47.60;9.90;;;;;;5023009;28;20045;-69
2022/07/18 10:58:45;;;;;;;3.40;1.00;;;48.00;10.00;;;;;;5022881;28;20037;-68
2022/07/18 11:01:17;;;;;;;4.18;1.17;;;48.10;9.70;;;;;;5026630;28;20041;-69
2022/07/18 11:03:43;;;;;;;5.68;1.10;;;48.20;9.70;;;;;;5019602;28;20555;-69
2022/07/18 11:06:09;;;;;;;3.92;1.08;;;48.40;9.50;;;;;;5024963;28;20030;-69
2022/07/18 11:08:35;;;;;;;6.35;0.90;;;48.50;9.30;;;;;;5024767;28;20490;-68
2022/07/18 11:11:09;;;;;;;5.55;1.00;;;48.50;9.10;;;;;;5025482;28;20057;-68
2022/07/18 11:13:43;;;;;;;4.20;0.90;;;48.70;9.10;;;;;;5018869;28;20025;-68
2022/07/18 11:16:14;;;;;;;5.35;0.90;;;48.90;9.10;;;;;;5016156;28;20501;-68
2022/07/18 11:18:43;;;;;;;3.45;0.90;;;49.00;8.90;;;;;;5022912;28;20041;-68
2022/07/18 11:21:25;;;;;;;4.75;1.02;;;49.00;8.90;;;;;;5019728;28;20029;-68
2022/07/18 11:24:02;;;;;;;2.88;1.02;;;49.20;8.90;;;;;;5018257;28;20081;-67
2022/07/18 11:26:29;;;;;;;2.53;0.80;;;49.50;8.70;;;;;;5022960;28;20030;-67
2022/07/18 11:28:58;;;;;;;4.35;0.90;;;49.30;8.60;;;;;;5024367;28;20080;-68
2022/07/18 11:31:26;;;;;;;3.28;0.80;;;49.60;7.60;;;;;;5022986;28;20041;-68
2022/07/18 11:33:58;;;;;;;5.70;0.70;;;49.50;8.40;;;;;;5021996;28;20121;-68
2022/07/18 11:36:30;;;;;;;8.98;1.17;;;49.70;8.40;;;;;;5024657;28;20026;-68
2022/07/18 11:39:02;;;;;;;4.43;0.90;;;49.90;8.10;;;;;;5027610;28;20033;-68
2022/07/18 11:41:27;;;;;;;8.02;1.10;;;49.70;7.80;;;;;;5026338;28;20557;-68
2022/07/18 11:43:55;;;;;;;11.80;1.20;;;49.40;8.00;;;;;;5020570;28;20041;-68
2022/07/18 11:46:23;;;;;;;13.05;1.40;;;49.40;8.30;;;;;;5018784;28;20025;-68
2022/07/18 11:48:59;;;;;;;5.13;1.15;;;48.80;8.40;;;;;;5022220;28;20037;-68
2022/07/18 11:51:25;;;;;;;2.88;0.90;;;48.90;8.40;;;;;;5022593;28;20037;-69
2022/07/18 11:53:53;;;;;;;5.65;0.95;;;49.00;8.50;;;;;;5028995;28;20033;-69
2022/07/18 11:56:21;;;;;;;8.00;1.00;;;49.10;8.40;;;;;;5027554;28;20067;-69
2022/07/18 11:58:49;;;;;;;4.57;1.00;;;49.30;8.60;;;;;;5024723;28;20064;-69
2022/07/18 12:01:16;;;;;;;3.78;1.00;;;49.40;8.60;;;;;;5022239;28;20022;-68
2022/07/18 12:03:45;;;;;;;2.58;0.70;;;49.20;8.60;;;;;;5029305;28;20049;-69
2022/07/18 12:06:20;;;;;;;5.20;1.00;;;49.00;8.50;;;;;;5025641;28;20533;-69
2022/07/18 12:08:56;;;;;;;4.47;1.10;;;49.00;8.60;;;;;;5023361;28;20473;-69
2022/07/18 12:11:25;;;;;;;4.18;0.98;;;49.20;8.70;;;;;;5027170;28;20052;-68
2022/07/18 12:13:56;;;;;;;4.93;0.90;;;49.40;8.80;;;;;;5029442;28;20114;-68
2022/07/18 12:16:39;;;;;;;8.75;0.90;;;49.50;8.50;;;;;;5022388;28;20055;-69
2022/07/18 12:19:10;;;;;;;6.30;1.10;;;49.40;8.70;;;;;;5020997;28;20026;-70
2022/07/18 12:21:56;;;;;;;3.80;1.08;;;49.60;8.60;;;;;;5028919;28;20039;-70
2022/07/18 12:24:31;;;;;;;4.13;1.00;;;49.80;8.30;;;;;;5025614;28;20044;-69
2022/07/18 12:27:19;;;;;;;6.85;1.30;;;49.10;8.30;;;;;;5021838;28;20041;-70
2022/07/18 12:30:07;;;;;;;6.25;1.20;;;49.30;8.40;;;;;;5026824;28;20033;-69
2022/07/18 12:32:51;;;;;;;11.23;1.20;;;49.50;7.80;;;;;;5026528;28;20024;-68
2022/07/18 12:35:32;;;;;;;3.83;1.00;;;49.50;7.80;;;;;;5024772;28;20040;-69
2022/07/18 12:38:03;;;;;;;5.90;1.20;;;49.50;8.60;;;;;;5019480;28;20021;-67
2022/07/18 12:40:47;;;;;;;5.35;1.00;;;49.60;8.50;;;;;;5023537;28;20034;-68
2022/07/18 12:43:24;;;;;;;6.80;1.30;;;49.60;8.80;;;;;;5019402;28;20568;-69
2022/07/18 12:45:50;;;;;;;3.50;1.05;;;49.70;8.40;;;;;;5023139;28;20488;-67
2022/07/18 12:48:16;;;;;;;6.88;1.20;;;49.50;7.90;;;;;;5023995;28;20029;-67
2022/07/18 12:50:44;;;;;;;4.13;1.10;;;49.50;8.70;;;;;;5019154;28;20033;-68